sensor_id;sensor_type;location;lat;lon;timestamp;pressure;altitude;pressure_sealevel;temperature
64904;BMP280;51401;48.882;12.598;2023-06-10T00:01:21;82137.19;;;16.96
64904;BMP280;51401;48.882;12.598;2023-06-10T00:03:52;81955.53;;;16.88
64904;BMP280;51401;48.882;12.598;2023-06-10T00:06:17;81848.84;;;16.73
64904;BMP280;51401;48.882;12.598;2023-06-10T00:08:43;81643.31;;;16.65
64904;BMP280;51401;48.882;12.598;2023-06-10T00:11:08;81451.41;;;16.51
64904;BMP280;51401;48.882;12.598;2023-06-10T00:13:33;80929.28;;;16.54
64904;BMP280;51401;48.882;12.598;2023-06-10T00:15:59;80549.81;;;16.50
64904;BMP280;51401;48.882;12.598;2023-06-10T00:18:24;80219.66;;;16.48
64904;BMP280;51401;48.882;12.598;2023-06-10T00:20:52;79832.47;;;16.55
64904;BMP280;51401;48.882;12.598;2023-06-10T00:23:18;79794.19;;;16.49
64904;BMP280;51401;48.882;12.598;2023-06-10T00:25:43;79707.44;;;16.46
64904;BMP280;51401;48.882;12.598;2023-06-10T00:28:08;79553.56;;;16.39
64904;BMP280;51401;48.882;12.598;2023-06-10T00:30:34;79391.69;;;16.34
64904;BMP280;51401;48.882;12.598;2023-06-10T00:32:59;79215.97;;;16.26
64904;BMP280;51401;48.882;12.598;2023-06-10T00:35:25;78890.69;;;16.19
64904;BMP280;51401;48.882;12.598;2023-06-10T00:37:50;78611.44;;;16.18
64904;BMP280;51401;48.882;12.598;2023-06-10T00:40:15;78365.44;;;16.21
64904;BMP280;51401;48.882;12.598;2023-06-10T00:42:41;77822.25;;;16.30
64904;BMP280;51401;48.882;12.598;2023-06-10T00:45:06;77773.22;;;16.24
64904;BMP280;51401;48.882;12.598;2023-06-10T00:47:32;77531.38;;;16.21
64904;BMP280;51401;48.882;12.598;2023-06-10T00:49:58;77247.56;;;16.25
64904;BMP280;51401;48.882;12.598;2023-06-10T00:52:27;77191.75;;;16.29
64904;BMP280;51401;48.882;12.598;2023-06-10T00:54:53;77243.91;;;16.20
64904;BMP280;51401;48.882;12.598;2023-06-10T00:57:18;77309.34;;;16.09
64904;BMP280;51401;48.882;12.598;2023-06-10T00:59:48;77285.56;;;16.00
64904;BMP280;51401;48.882;12.598;2023-06-10T01:02:13;77154.78;;;15.90
64904;BMP280;51401;48.882;12.598;2023-06-10T01:04:38;76595.38;;;15.93
64904;BMP280;51401;48.882;12.598;2023-06-10T01:07:18;75935.56;;;15.93
64904;BMP280;51401;48.882;12.598;2023-06-10T01:10:03;75431.00;;;15.92
64904;BMP280;51401;48.882;12.598;2023-06-10T01:13:00;75062.03;;;15.91
64904;BMP280;51401;48.882;12.598;2023-06-10T01:15:29;74667.16;;;15.91
64904;BMP280;51401;48.882;12.598;2023-06-10T01:17:59;74380.75;;;15.90
64904;BMP280;51401;48.882;12.598;2023-06-10T01:20:31;73981.88;;;15.90
64904;BMP280;51401;48.882;12.598;2023-06-10T01:23:01;73553.03;;;15.92
64904;BMP280;51401;48.882;12.598;2023-06-10T01:25:28;73296.22;;;15.89
64904;BMP280;51401;48.882;12.598;2023-06-10T01:30:50;73208.16;;;15.92
64904;BMP280;51401;48.882;12.598;2023-06-10T01:33:25;73163.16;;;15.96
64904;BMP280;51401;48.882;12.598;2023-06-10T01:35:52;73419.25;;;15.93
64904;BMP280;51401;48.882;12.598;2023-06-10T01:38:19;73727.19;;;15.90
64904;BMP280;51401;48.882;12.598;2023-06-10T01:40:46;73912.28;;;15.88
64904;BMP280;51401;48.882;12.598;2023-06-10T01:43:12;74435.09;;;15.87
64904;BMP280;51401;48.882;12.598;2023-06-10T01:45:37;74844.78;;;15.85
64904;BMP280;51401;48.882;12.598;2023-06-10T01:48:02;74893.09;;;15.77
64904;BMP280;51401;48.882;12.598;2023-06-10T01:50:28;75074.16;;;15.70
64904;BMP280;51401;48.882;12.598;2023-06-10T01:52:53;75074.00;;;15.67
64904;BMP280;51401;48.882;12.598;2023-06-10T01:55:18;74852.50;;;15.66
64904;BMP280;51401;48.882;12.598;2023-06-10T01:57:44;74628.78;;;15.63
64904;BMP280;51401;48.882;12.598;2023-06-10T02:00:09;74499.59;;;15.61
64904;BMP280;51401;48.882;12.598;2023-06-10T02:02:35;74336.91;;;15.64
64904;BMP280;51401;48.882;12.598;2023-06-10T02:05:00;74177.25;;;15.65
64904;BMP280;51401;48.882;12.598;2023-06-10T02:07:26;74269.00;;;15.55
64904;BMP280;51401;48.882;12.598;2023-06-10T02:09:51;74443.38;;;15.48
64904;BMP280;51401;48.882;12.598;2023-06-10T02:12:16;74562.63;;;15.39
64904;BMP280;51401;48.882;12.598;2023-06-10T02:14:42;74485.56;;;15.32
64904;BMP280;51401;48.882;12.598;2023-06-10T02:17:07;74077.09;;;15.31
64904;BMP280;51401;48.882;12.598;2023-06-10T02:19:32;73698.84;;;15.31
64904;BMP280;51401;48.882;12.598;2023-06-10T02:22:01;73563.75;;;15.21
64904;BMP280;51401;48.882;12.598;2023-06-10T02:24:27;73268.84;;;15.17
64904;BMP280;51401;48.882;12.598;2023-06-10T02:26:52;72766.00;;;15.16
64904;BMP280;51401;48.882;12.598;2023-06-10T02:29:18;72234.78;;;15.18
64904;BMP280;51401;48.882;12.598;2023-06-10T02:31:43;71736.25;;;15.19
64904;BMP280;51401;48.882;12.598;2023-06-10T02:34:08;71213.44;;;15.19
64904;BMP280;51401;48.882;12.598;2023-06-10T02:36:34;70633.28;;;15.21
64904;BMP280;51401;48.882;12.598;2023-06-10T02:39:01;69982.25;;;15.27
64904;BMP280;51401;48.882;12.598;2023-06-10T02:41:26;69367.63;;;15.28
64904;BMP280;51401;48.882;12.598;2023-06-10T02:43:51;68822.56;;;15.24
64904;BMP280;51401;48.882;12.598;2023-06-10T02:46:17;68520.38;;;15.16
64904;BMP280;51401;48.882;12.598;2023-06-10T02:48:43;68143.56;;;15.14
64904;BMP280;51401;48.882;12.598;2023-06-10T02:51:11;67607.91;;;15.16
64904;BMP280;51401;48.882;12.598;2023-06-10T02:53:37;67108.50;;;15.18
64904;BMP280;51401;48.882;12.598;2023-06-10T02:56:02;66775.53;;;15.13
64904;BMP280;51401;48.882;12.598;2023-06-10T02:58:28;66382.53;;;15.10
64904;BMP280;51401;48.882;12.598;2023-06-10T03:00:53;65662.47;;;15.16
64904;BMP280;51401;48.882;12.598;2023-06-10T03:03:19;65009.56;;;15.22
64904;BMP280;51401;48.882;12.598;2023-06-10T03:05:45;64464.94;;;15.25
64904;BMP280;51401;48.882;12.598;2023-06-10T03:08:10;64069.75;;;15.22
64904;BMP280;51401;48.882;12.598;2023-06-10T03:10:35;63695.94;;;15.23
64904;BMP280;51401;48.882;12.598;2023-06-10T03:13:01;63243.63;;;15.28
64904;BMP280;51401;48.882;12.598;2023-06-10T03:15:26;62966.13;;;15.26
64904;BMP280;51401;48.882;12.598;2023-06-10T03:17:54;62651.31;;;15.26
64904;BMP280;51401;48.882;12.598;2023-06-10T03:20:19;62428.06;;;15.25
64904;BMP280;51401;48.882;12.598;2023-06-10T03:22:47;62274.06;;;15.23
64904;BMP280;51401;48.882;12.598;2023-06-10T03:25:12;62197.47;;;15.21
64904;BMP280;51401;48.882;12.598;2023-06-10T03:27:40;62030.31;;;15.24
64904;BMP280;51401;48.882;12.598;2023-06-10T03:30:06;61870.44;;;15.27
64904;BMP280;51401;48.882;12.598;2023-06-10T03:32:31;61743.34;;;15.35
64904;BMP280;51401;48.882;12.598;2023-06-10T03:34:57;61543.22;;;15.48
64904;BMP280;51401;48.882;12.598;2023-06-10T03:37:26;61687.38;;;15.53
64904;BMP280;51401;48.882;12.598;2023-06-10T03:39:52;61981.38;;;15.61
64904;BMP280;51401;48.882;12.598;2023-06-10T03:42:17;62429.59;;;15.72
64904;BMP280;51401;48.882;12.598;2023-06-10T03:44:42;63048.72;;;15.88
64904;BMP280;51401;48.882;12.598;2023-06-10T03:47:07;63777.53;;;16.08
64904;BMP280;51401;48.882;12.598;2023-06-10T03:49:33;64583.66;;;16.40
64904;BMP280;51401;48.882;12.598;2023-06-10T03:51:58;66016.06;;;16.76
64904;BMP280;51401;48.882;12.598;2023-06-10T03:54:24;68345.84;;;16.85
64904;BMP280;51401;48.882;12.598;2023-06-10T03:56:49;70527.22;;;16.88
64904;BMP280;51401;48.882;12.598;2023-06-10T03:59:15;72227.56;;;16.88
64904;BMP280;51401;48.882;12.598;2023-06-10T04:01:40;73361.84;;;16.93
64904;BMP280;51401;48.882;12.598;2023-06-10T04:04:06;73747.00;;;17.12
64904;BMP280;51401;48.882;12.598;2023-06-10T04:06:32;73946.56;;;17.52
64904;BMP280;51401;48.882;12.598;2023-06-10T04:08:57;74709.75;;;18.07
64904;BMP280;51401;48.882;12.598;2023-06-10T04:11:23;75826.41;;;18.48
64904;BMP280;51401;48.882;12.598;2023-06-10T04:13:49;76985.94;;;18.87
64904;BMP280;51401;48.882;12.598;2023-06-10T04:16:14;78979.28;;;19.37
64904;BMP280;51401;48.882;12.598;2023-06-10T04:18:41;80828.31;;;19.32
64904;BMP280;51401;48.882;12.598;2023-06-10T04:21:07;80629.16;;;18.66
64904;BMP280;51401;48.882;12.598;2023-06-10T04:23:32;79695.19;;;18.47
64904;BMP280;51401;48.882;12.598;2023-06-10T04:25:57;79317.63;;;18.96
64904;BMP280;51401;48.882;12.598;2023-06-10T04:28:24;80343.44;;;19.72
64904;BMP280;51401;48.882;12.598;2023-06-10T04:30:50;81759.13;;;20.17
64904;BMP280;51401;48.882;12.598;2023-06-10T04:33:15;82246.97;;;19.97
64904;BMP280;51401;48.882;12.598;2023-06-10T04:35:41;82104.56;;;19.94
64904;BMP280;51401;48.882;12.598;2023-06-10T04:38:07;82711.44;;;20.21
64904;BMP280;51401;48.882;12.598;2023-06-10T04:40:32;83278.88;;;21.25
64904;BMP280;51401;48.882;12.598;2023-06-10T04:42:58;83292.94;;;20.69
64904;BMP280;51401;48.882;12.598;2023-06-10T04:45:23;84030.09;;;21.44
64904;BMP280;51401;48.882;12.598;2023-06-10T04:47:48;84612.63;;;21.81
64904;BMP280;51401;48.882;12.598;2023-06-10T04:50:13;84623.75;;;21.81
64904;BMP280;51401;48.882;12.598;2023-06-10T04:52:39;85177.03;;;22.35
64904;BMP280;51401;48.882;12.598;2023-06-10T04:55:06;85473.50;;;22.61
64904;BMP280;51401;48.882;12.598;2023-06-10T04:57:32;85817.56;;;22.77
64904;BMP280;51401;48.882;12.598;2023-06-10T04:59:57;86001.06;;;22.81
64904;BMP280;51401;48.882;12.598;2023-06-10T05:02:23;86096.94;;;23.00
64904;BMP280;51401;48.882;12.598;2023-06-10T05:04:48;86215.59;;;22.69
64904;BMP280;51401;48.882;12.598;2023-06-10T05:07:13;85698.97;;;22.79
64904;BMP280;51401;48.882;12.598;2023-06-10T05:09:39;85866.97;;;23.13
64904;BMP280;51401;48.882;12.598;2023-06-10T05:12:05;86676.50;;;23.50
64904;BMP280;51401;48.882;12.598;2023-06-10T05:14:30;86545.91;;;23.51
64904;BMP280;51401;48.882;12.598;2023-06-10T05:16:56;87174.72;;;24.14
64904;BMP280;51401;48.882;12.598;2023-06-10T05:19:22;87055.44;;;23.92
64904;BMP280;51401;48.882;12.598;2023-06-10T05:21:47;87442.41;;;24.45
64904;BMP280;51401;48.882;12.598;2023-06-10T05:24:13;89414.69;;;24.69
64904;BMP280;51401;48.882;12.598;2023-06-10T05:26:38;91266.63;;;24.42
64904;BMP280;51401;48.882;12.598;2023-06-10T05:29:05;92442.78;;;24.57
64904;BMP280;51401;48.882;12.598;2023-06-10T05:31:30;92755.50;;;24.38
64904;BMP280;51401;48.882;12.598;2023-06-10T05:33:55;93208.13;;;24.38
64904;BMP280;51401;48.882;12.598;2023-06-10T05:36:21;93314.13;;;24.08
64904;BMP280;51401;48.882;12.598;2023-06-10T05:38:46;94278.59;;;24.66
64904;BMP280;51401;48.882;12.598;2023-06-10T05:41:12;95735.31;;;24.99
64904;BMP280;51401;48.882;12.598;2023-06-10T05:43:37;96001.34;;;24.12
64904;BMP280;51401;48.882;12.598;2023-06-10T05:46:02;96203.06;;;24.16
64904;BMP280;51401;48.882;12.598;2023-06-10T05:48:28;96289.09;;;24.69
64904;BMP280;51401;48.882;12.598;2023-06-10T05:50:53;96489.31;;;24.94
64904;BMP280;51401;48.882;12.598;2023-06-10T05:53:18;96526.44;;;25.36
64904;BMP280;51401;48.882;12.598;2023-06-10T05:55:45;96555.63;;;25.36
64904;BMP280;51401;48.882;12.598;2023-06-10T05:58:12;96556.34;;;25.36
64904;BMP280;51401;48.882;12.598;2023-06-10T06:00:38;96295.53;;;25.36
64904;BMP280;51401;48.882;12.598;2023-06-10T06:03:05;96336.03;;;25.92
64904;BMP280;51401;48.882;12.598;2023-06-10T06:05:31;96293.50;;;24.62
64904;BMP280;51401;48.882;12.598;2023-06-10T06:08:09;96121.06;;;24.41
64904;BMP280;51401;48.882;12.598;2023-06-10T06:10:35;95854.56;;;24.20
64904;BMP280;51401;48.882;12.598;2023-06-10T06:13:00;95736.19;;;24.61
64904;BMP280;51401;48.882;12.598;2023-06-10T06:15:26;95792.53;;;24.94
64904;BMP280;51401;48.882;12.598;2023-06-10T06:17:51;95830.59;;;24.39
64904;BMP280;51401;48.882;12.598;2023-06-10T06:20:19;95800.56;;;23.85
64904;BMP280;51401;48.882;12.598;2023-06-10T06:22:45;95488.00;;;23.17
64904;BMP280;51401;48.882;12.598;2023-06-10T06:25:10;95352.72;;;23.46
64904;BMP280;51401;48.882;12.598;2023-06-10T06:27:36;95288.44;;;23.31
64904;BMP280;51401;48.882;12.598;2023-06-10T06:30:01;94900.81;;;22.86
64904;BMP280;51401;48.882;12.598;2023-06-10T06:32:27;94411.47;;;22.56
64904;BMP280;51401;48.882;12.598;2023-06-10T06:34:53;93643.63;;;22.27
64904;BMP280;51401;48.882;12.598;2023-06-10T06:37:21;93573.06;;;22.18
64904;BMP280;51401;48.882;12.598;2023-06-10T06:39:47;93398.97;;;22.18
64904;BMP280;51401;48.882;12.598;2023-06-10T06:42:13;93399.81;;;21.85
64904;BMP280;51401;48.882;12.598;2023-06-10T06:44:38;92727.28;;;21.79
64904;BMP280;51401;48.882;12.598;2023-06-10T06:47:03;91898.13;;;21.19
64904;BMP280;51401;48.882;12.598;2023-06-10T06:49:29;91429.69;;;21.36
64904;BMP280;51401;48.882;12.598;2023-06-10T06:51:54;91099.94;;;21.51
64904;BMP280;51401;48.882;12.598;2023-06-10T06:54:19;90781.13;;;21.43
64904;BMP280;51401;48.882;12.598;2023-06-10T06:56:45;90683.34;;;21.53
64904;BMP280;51401;48.882;12.598;2023-06-10T06:59:10;90508.72;;;21.92
64904;BMP280;51401;48.882;12.598;2023-06-10T07:01:39;90455.00;;;21.78
64904;BMP280;51401;48.882;12.598;2023-06-10T07:04:04;90849.50;;;21.82
64904;BMP280;51401;48.882;12.598;2023-06-10T07:06:29;91088.63;;;21.85
64904;BMP280;51401;48.882;12.598;2023-06-10T07:08:54;91151.03;;;21.98
64904;BMP280;51401;48.882;12.598;2023-06-10T07:11:20;91081.44;;;21.85
64904;BMP280;51401;48.882;12.598;2023-06-10T07:13:45;91117.50;;;21.81
64904;BMP280;51401;48.882;12.598;2023-06-10T07:16:11;90992.91;;;21.59
64904;BMP280;51401;48.882;12.598;2023-06-10T07:18:36;90770.44;;;21.58
64904;BMP280;51401;48.882;12.598;2023-06-10T07:21:02;91112.50;;;21.89
64904;BMP280;51401;48.882;12.598;2023-06-10T07:23:27;91413.81;;;22.12
64904;BMP280;51401;48.882;12.598;2023-06-10T07:25:52;91612.94;;;22.46
64904;BMP280;51401;48.882;12.598;2023-06-10T07:28:18;91318.13;;;22.61
64904;BMP280;51401;48.882;12.598;2023-06-10T07:30:43;91250.28;;;22.81
64904;BMP280;51401;48.882;12.598;2023-06-10T07:33:08;91664.81;;;23.37
64904;BMP280;51401;48.882;12.598;2023-06-10T07:35:35;91759.47;;;23.59
64904;BMP280;51401;48.882;12.598;2023-06-10T07:38:00;92278.19;;;24.16
64904;BMP280;51401;48.882;12.598;2023-06-10T07:40:26;92153.41;;;24.37
64904;BMP280;51401;48.882;12.598;2023-06-10T07:42:51;93176.09;;;25.02
64904;BMP280;51401;48.882;12.598;2023-06-10T07:45:18;94793.66;;;24.95
64904;BMP280;51401;48.882;12.598;2023-06-10T07:47:43;95386.47;;;24.98
64904;BMP280;51401;48.882;12.598;2023-06-10T07:50:09;96263.00;;;25.73
64904;BMP280;51401;48.882;12.598;2023-06-10T07:52:34;96170.91;;;25.56
64904;BMP280;51401;48.882;12.598;2023-06-10T07:54:59;96270.81;;;26.63
64904;BMP280;51401;48.882;12.598;2023-06-10T07:57:25;96258.28;;;26.50
64904;BMP280;51401;48.882;12.598;2023-06-10T07:59:50;96389.41;;;26.45
64904;BMP280;51401;48.882;12.598;2023-06-10T08:02:16;96487.84;;;26.14
64904;BMP280;51401;48.882;12.598;2023-06-10T08:04:41;96712.34;;;26.75
64904;BMP280;51401;48.882;12.598;2023-06-10T08:07:06;96456.94;;;25.99
64904;BMP280;51401;48.882;12.598;2023-06-10T08:09:32;96284.28;;;25.30
64904;BMP280;51401;48.882;12.598;2023-06-10T08:11:57;96497.88;;;26.85
64904;BMP280;51401;48.882;12.598;2023-06-10T08:14:22;96430.16;;;25.84
64904;BMP280;51401;48.882;12.598;2023-06-10T08:16:47;96461.06;;;26.13
64904;BMP280;51401;48.882;12.598;2023-06-10T08:19:13;96084.06;;;25.18
64904;BMP280;51401;48.882;12.598;2023-06-10T08:21:38;96098.03;;;25.31
64904;BMP280;51401;48.882;12.598;2023-06-10T08:24:06;95771.56;;;24.64
64904;BMP280;51401;48.882;12.598;2023-06-10T08:26:31;96028.97;;;24.29
64904;BMP280;51401;48.882;12.598;2023-06-10T08:28:57;96026.59;;;24.00
64904;BMP280;51401;48.882;12.598;2023-06-10T08:31:22;95871.44;;;23.92
64904;BMP280;51401;48.882;12.598;2023-06-10T08:33:47;95914.41;;;23.98
64904;BMP280;51401;48.882;12.598;2023-06-10T08:36:13;95675.72;;;23.94
64904;BMP280;51401;48.882;12.598;2023-06-10T08:38:38;95793.03;;;23.76
64904;BMP280;51401;48.882;12.598;2023-06-10T08:41:05;95879.19;;;24.54
64904;BMP280;51401;48.882;12.598;2023-06-10T08:43:45;96048.41;;;25.26
64904;BMP280;51401;48.882;12.598;2023-06-10T08:46:13;96287.50;;;25.79
64904;BMP280;51401;48.882;12.598;2023-06-10T08:48:43;96719.50;;;26.98
64904;BMP280;51401;48.882;12.598;2023-06-10T08:51:10;96824.38;;;26.90
64904;BMP280;51401;48.882;12.598;2023-06-10T08:53:37;96771.50;;;26.32
64904;BMP280;51401;48.882;12.598;2023-06-10T08:56:04;96524.59;;;25.80
64904;BMP280;51401;48.882;12.598;2023-06-10T08:58:32;96577.66;;;26.34
64904;BMP280;51401;48.882;12.598;2023-06-10T09:00:58;96565.25;;;25.39
64904;BMP280;51401;48.882;12.598;2023-06-10T09:03:25;96413.03;;;24.82
64904;BMP280;51401;48.882;12.598;2023-06-10T09:05:50;96195.56;;;24.51
64904;BMP280;51401;48.882;12.598;2023-06-10T09:08:16;95778.06;;;24.04
64904;BMP280;51401;48.882;12.598;2023-06-10T09:10:42;95832.09;;;23.58
64904;BMP280;51401;48.882;12.598;2023-06-10T09:13:07;95576.47;;;23.29
64904;BMP280;51401;48.882;12.598;2023-06-10T09:15:33;95527.31;;;23.46
64904;BMP280;51401;48.882;12.598;2023-06-10T09:17:59;95455.22;;;23.86
64904;BMP280;51401;48.882;12.598;2023-06-10T09:20:24;95556.88;;;23.90
64904;BMP280;51401;48.882;12.598;2023-06-10T09:22:50;95758.78;;;24.29
64904;BMP280;51401;48.882;12.598;2023-06-10T09:25:15;95647.75;;;24.51
64904;BMP280;51401;48.882;12.598;2023-06-10T09:27:50;95837.59;;;24.62
64904;BMP280;51401;48.882;12.598;2023-06-10T09:30:32;95482.69;;;24.16
64904;BMP280;51401;48.882;12.598;2023-06-10T09:32:59;95472.72;;;23.89
64904;BMP280;51401;48.882;12.598;2023-06-10T09:35:27;95540.41;;;24.38
64904;BMP280;51401;48.882;12.598;2023-06-10T09:37:53;95816.28;;;24.67
64904;BMP280;51401;48.882;12.598;2023-06-10T09:40:19;95899.84;;;24.81
64904;BMP280;51401;48.882;12.598;2023-06-10T09:42:44;95942.53;;;24.90
64904;BMP280;51401;48.882;12.598;2023-06-10T09:45:10;95812.50;;;24.75
64904;BMP280;51401;48.882;12.598;2023-06-10T09:47:35;95910.78;;;24.77
64904;BMP280;51401;48.882;12.598;2023-06-10T09:50:13;95903.78;;;25.00
64904;BMP280;51401;48.882;12.598;2023-06-10T09:52:38;95902.69;;;25.28
64904;BMP280;51401;48.882;12.598;2023-06-10T09:55:07;96290.97;;;25.49
64904;BMP280;51401;48.882;12.598;2023-06-10T09:57:33;96541.94;;;25.99
64904;BMP280;51401;48.882;12.598;2023-06-10T09:59:59;96502.69;;;25.92
64904;BMP280;51401;48.882;12.598;2023-06-10T10:02:28;96569.44;;;26.19
64904;BMP280;51401;48.882;12.598;2023-06-10T10:05:02;96535.50;;;26.38
64904;BMP280;51401;48.882;12.598;2023-06-10T10:07:27;96448.97;;;25.68
64904;BMP280;51401;48.882;12.598;2023-06-10T10:09:53;96127.22;;;25.31
64904;BMP280;51401;48.882;12.598;2023-06-10T10:12:18;95894.00;;;24.37
64904;BMP280;51401;48.882;12.598;2023-06-10T10:14:46;95995.00;;;24.71
64904;BMP280;51401;48.882;12.598;2023-06-10T10:17:14;96093.38;;;24.55
64904;BMP280;51401;48.882;12.598;2023-06-10T10:19:46;95934.84;;;24.66
64904;BMP280;51401;48.882;12.598;2023-06-10T10:22:18;96145.50;;;24.78
64904;BMP280;51401;48.882;12.598;2023-06-10T10:24:53;96282.53;;;24.89
64904;BMP280;51401;48.882;12.598;2023-06-10T10:27:26;96440.75;;;25.04
64904;BMP280;51401;48.882;12.598;2023-06-10T10:29:53;96371.59;;;25.33
64904;BMP280;51401;48.882;12.598;2023-06-10T10:32:23;96580.91;;;25.60
64904;BMP280;51401;48.882;12.598;2023-06-10T10:35:03;96705.78;;;26.63
64904;BMP280;51401;48.882;12.598;2023-06-10T10:37:31;96814.94;;;26.58
64904;BMP280;51401;48.882;12.598;2023-06-10T10:39:56;96816.06;;;26.63
64904;BMP280;51401;48.882;12.598;2023-06-10T10:42:22;96836.94;;;26.59
64904;BMP280;51401;48.882;12.598;2023-06-10T10:44:49;96622.53;;;26.07
64904;BMP280;51401;48.882;12.598;2023-06-10T10:47:15;96631.28;;;26.51
64904;BMP280;51401;48.882;12.598;2023-06-10T10:49:43;96397.81;;;26.82
64904;BMP280;51401;48.882;12.598;2023-06-10T10:52:12;96372.88;;;26.72
64904;BMP280;51401;48.882;12.598;2023-06-10T10:54:43;96027.94;;;26.40
64904;BMP280;51401;48.882;12.598;2023-06-10T10:59:55;95520.41;;;25.68
64904;BMP280;51401;48.882;12.598;2023-06-10T11:02:43;95879.69;;;25.91
64904;BMP280;51401;48.882;12.598;2023-06-10T11:05:17;96080.56;;;26.62
64904;BMP280;51401;48.882;12.598;2023-06-10T11:07:52;96366.47;;;27.41
64904;BMP280;51401;48.882;12.598;2023-06-10T11:10:30;96415.56;;;26.29
64904;BMP280;51401;48.882;12.598;2023-06-10T11:12:57;96206.25;;;26.42
64904;BMP280;51401;48.882;12.598;2023-06-10T11:15:24;96609.31;;;26.19
64904;BMP280;51401;48.882;12.598;2023-06-10T11:23:30;95945.34;;;24.85
64904;BMP280;51401;48.882;12.598;2023-06-10T11:26:20;95990.09;;;25.01
64904;BMP280;51401;48.882;12.598;2023-06-10T11:31:38;96449.69;;;27.01
64904;BMP280;51401;48.882;12.598;2023-06-10T11:34:05;96786.19;;;27.44
64904;BMP280;51401;48.882;12.598;2023-06-10T11:36:32;96762.81;;;26.50
64904;BMP280;51401;48.882;12.598;2023-06-10T11:39:00;96474.56;;;26.65
64904;BMP280;51401;48.882;12.598;2023-06-10T11:41:26;96760.44;;;26.64
64904;BMP280;51401;48.882;12.598;2023-06-10T11:43:52;96776.16;;;27.24
64904;BMP280;51401;48.882;12.598;2023-06-10T11:46:19;96999.63;;;28.15
64904;BMP280;51401;48.882;12.598;2023-06-10T11:48:58;97165.56;;;29.21
64904;BMP280;51401;48.882;12.598;2023-06-10T11:51:28;97251.56;;;29.57
64904;BMP280;51401;48.882;12.598;2023-06-10T11:53:54;97106.16;;;29.15
64904;BMP280;51401;48.882;12.598;2023-06-10T11:56:24;97233.25;;;29.10
64904;BMP280;51401;48.882;12.598;2023-06-10T11:58:59;97269.69;;;28.95
64904;BMP280;51401;48.882;12.598;2023-06-10T12:01:26;97180.63;;;28.67
64904;BMP280;51401;48.882;12.598;2023-06-10T12:04:03;97135.31;;;28.62
64904;BMP280;51401;48.882;12.598;2023-06-10T12:06:39;97104.56;;;28.17
64904;BMP280;51401;48.882;12.598;2023-06-10T12:09:06;97138.66;;;27.75
64904;BMP280;51401;48.882;12.598;2023-06-10T12:11:31;97037.91;;;27.01
64904;BMP280;51401;48.882;12.598;2023-06-10T12:13:57;96969.88;;;26.64
64904;BMP280;51401;48.882;12.598;2023-06-10T12:16:22;96850.31;;;26.12
64904;BMP280;51401;48.882;12.598;2023-06-10T12:18:48;96830.16;;;25.74
64904;BMP280;51401;48.882;12.598;2023-06-10T12:21:23;96464.41;;;26.00
64904;BMP280;51401;48.882;12.598;2023-06-10T12:24:08;96352.38;;;25.27
64904;BMP280;51401;48.882;12.598;2023-06-10T12:26:53;96579.22;;;25.63
64904;BMP280;51401;48.882;12.598;2023-06-10T12:29:22;96554.47;;;25.86
64904;BMP280;51401;48.882;12.598;2023-06-10T12:31:57;96648.53;;;26.14
64904;BMP280;51401;48.882;12.598;2023-06-10T12:34:29;96708.31;;;26.25
64904;BMP280;51401;48.882;12.598;2023-06-10T12:36:55;96767.84;;;26.35
64904;BMP280;51401;48.882;12.598;2023-06-10T12:39:21;96770.06;;;26.49
64904;BMP280;51401;48.882;12.598;2023-06-10T12:41:56;96723.31;;;26.54
64904;BMP280;51401;48.882;12.598;2023-06-10T12:44:52;96449.03;;;26.37
64904;BMP280;51401;48.882;12.598;2023-06-10T12:47:18;96518.94;;;26.32
64904;BMP280;51401;48.882;12.598;2023-06-10T12:49:43;96466.59;;;26.40
64904;BMP280;51401;48.882;12.598;2023-06-10T12:52:09;96387.25;;;26.06
64904;BMP280;51401;48.882;12.598;2023-06-10T12:54:34;96327.88;;;26.03
64904;BMP280;51401;48.882;12.598;2023-06-10T12:57:00;96403.38;;;25.95
64904;BMP280;51401;48.882;12.598;2023-06-10T12:59:26;96466.97;;;26.06
64904;BMP280;51401;48.882;12.598;2023-06-10T13:01:52;96824.41;;;26.72
64904;BMP280;51401;48.882;12.598;2023-06-10T13:04:18;96952.38;;;27.05
64904;BMP280;51401;48.882;12.598;2023-06-10T13:06:43;97108.03;;;28.12
64904;BMP280;51401;48.882;12.598;2023-06-10T13:09:09;97171.69;;;29.54
64904;BMP280;51401;48.882;12.598;2023-06-10T13:11:34;97253.00;;;29.71
64904;BMP280;51401;48.882;12.598;2023-06-10T13:14:00;97268.72;;;30.20
64904;BMP280;51401;48.882;12.598;2023-06-10T13:16:26;97271.44;;;29.95
64904;BMP280;51401;48.882;12.598;2023-06-10T13:18:53;97262.72;;;28.61
64904;BMP280;51401;48.882;12.598;2023-06-10T13:21:18;97179.72;;;28.16
64904;BMP280;51401;48.882;12.598;2023-06-10T13:23:44;97108.00;;;27.63
64904;BMP280;51401;48.882;12.598;2023-06-10T13:26:12;97108.44;;;27.08
64904;BMP280;51401;48.882;12.598;2023-06-10T13:28:37;97105.59;;;26.82
64904;BMP280;51401;48.882;12.598;2023-06-10T13:31:03;97021.88;;;26.36
64904;BMP280;51401;48.882;12.598;2023-06-10T13:33:28;96958.63;;;26.29
64904;BMP280;51401;48.882;12.598;2023-06-10T13:35:53;96833.03;;;26.00
64904;BMP280;51401;48.882;12.598;2023-06-10T13:38:19;96806.31;;;25.69
64904;BMP280;51401;48.882;12.598;2023-06-10T13:40:44;96707.78;;;25.49
64904;BMP280;51401;48.882;12.598;2023-06-10T13:43:09;96001.22;;;24.87
64904;BMP280;51401;48.882;12.598;2023-06-10T13:45:35;90688.16;;;23.87
64904;BMP280;51401;48.882;12.598;2023-06-10T13:48:00;88198.03;;;23.06
64904;BMP280;51401;48.882;12.598;2023-06-10T13:50:26;86855.88;;;22.23
64904;BMP280;51401;48.882;12.598;2023-06-10T13:52:51;80957.47;;;21.99
64904;BMP280;51401;48.882;12.598;2023-06-10T13:55:17;76659.13;;;21.57
64904;BMP280;51401;48.882;12.598;2023-06-10T13:57:43;75555.16;;;21.44
64904;BMP280;51401;48.882;12.598;2023-06-10T14:00:09;76051.84;;;21.13
64904;BMP280;51401;48.882;12.598;2023-06-10T14:02:35;75393.56;;;20.86
64904;BMP280;51401;48.882;12.598;2023-06-10T14:05:01;73825.81;;;20.75
64904;BMP280;51401;48.882;12.598;2023-06-10T14:07:26;72630.47;;;20.69
64904;BMP280;51401;48.882;12.598;2023-06-10T14:09:52;71654.25;;;20.52